Meridian Spirit — OWHC2 — position and weather

sailwx.info

Track history (hours):
 
Tides and Currents Weather Stations Pressure Air Temp Water Temp Dewpoint Dewpoint Depression Visibility Wind Speed Wind Dir Waves Ship Positions

Meridian Spirit

Last reported at 2018-Aug-03 17:00 UTC. Time now 2018-Aug-21 01:56 UTC.
Position S 34°13' E 017°41'.
Warning: this ship's position is 17 days out of date.

Length 285 m; draft 9.6 m.

Type: Tanker. MMSI: 219061000.

Date/timePositionNaut miles runAvg speedWind from/ knotsBaromVisibWave heightAir tempDewpointWater temp
2018-Aug-03 17:00S 34°13' E 017°41'811.6
2018-Aug-03 16:20S 34°17' E 017°49'511.8
2018-Aug-03 15:53S 34°20' E 017°54'511.9
2018-Aug-03 15:26S 34°23' E 017°59'613.5
2018-Aug-03 15:00S 34°26' E 018°05'816.7
2018-Aug-03 14:30S 34°30' E 018°14'917.4
2018-Aug-03 14:00S 34°34' E 018°24'917.7
2018-Aug-03 13:31S 34°38' E 018°33'917.6
2018-Aug-03 13:00S 34°43' E 018°42'1017.6
2018-Aug-03 12:25S 34°48' E 018°53'  
Track history (hours):
 
Tides and Currents Weather Stations Pressure Air Temp Water Temp Dewpoint Dewpoint Depression Visibility Wind Speed Wind Dir Waves Ship Positions

Meridian Spirit

Last reported at 2018-Aug-03 17:00 UTC. Time now 2018-Aug-21 01:56 UTC.
Position S 34°13' E 017°41'.
Warning: this ship's position is 17 days out of date.

Length 285 m; draft 9.6 m.

Type: Tanker. MMSI: 219061000.

Date/timePositionNaut miles runAvg speedWind from/ knotsBaromVisibWave heightAir tempDewpointWater temp
2018-Aug-03 17:00S 34°13' E 017°41'811.6
2018-Aug-03 16:20S 34°17' E 017°49'511.8
2018-Aug-03 15:53S 34°20' E 017°54'511.9
2018-Aug-03 15:26S 34°23' E 017°59'613.5
2018-Aug-03 15:00S 34°26' E 018°05'816.7
2018-Aug-03 14:30S 34°30' E 018°14'917.4
2018-Aug-03 14:00S 34°34' E 018°24'917.7
2018-Aug-03 13:31S 34°38' E 018°33'917.6
2018-Aug-03 13:00S 34°43' E 018°42'1017.6
2018-Aug-03 12:25S 34°48' E 018°53'  

Dump ship's entire track history